sensor_id;sensor_type;location;lat;lon;timestamp;pressure;altitude;pressure_sealevel;temperature;humidity
33422;BME280;19763;55.798;37.782;2022-09-24T00:00:37;98618.28;;;11.56;90.58
33422;BME280;19763;55.798;37.782;2022-09-24T00:03:03;98601.75;;;11.38;91.45
33422;BME280;19763;55.798;37.782;2022-09-24T00:05:28;98593.28;;;11.34;92.30
33422;BME280;19763;55.798;37.782;2022-09-24T00:07:54;98589.53;;;11.40;91.35
33422;BME280;19763;55.798;37.782;2022-09-24T00:10:19;98581.53;;;11.46;91.32
33422;BME280;19763;55.798;37.782;2022-09-24T00:12:46;98573.03;;;11.43;91.72
33422;BME280;19763;55.798;37.782;2022-09-24T00:15:12;98573.75;;;11.46;91.81
33422;BME280;19763;55.798;37.782;2022-09-24T00:17:37;98556.91;;;11.36;91.50
33422;BME280;19763;55.798;37.782;2022-09-24T00:20:03;98544.50;;;11.43;91.43
33422;BME280;19763;55.798;37.782;2022-09-24T00:22:31;98524.25;;;11.32;91.42
33422;BME280;19763;55.798;37.782;2022-09-24T00:24:56;98537.69;;;11.40;92.35
33422;BME280;19763;55.798;37.782;2022-09-24T00:27:41;98530.41;;;11.29;91.94
33422;BME280;19763;55.798;37.782;2022-09-24T00:30:07;98520.03;;;11.29;92.66
33422;BME280;19763;55.798;37.782;2022-09-24T00:32:33;98525.03;;;11.34;92.44
33422;BME280;19763;55.798;37.782;2022-09-24T00:34:58;98511.78;;;11.40;91.87
33422;BME280;19763;55.798;37.782;2022-09-24T00:37:24;98506.03;;;11.33;91.75
33422;BME280;19763;55.798;37.782;2022-09-24T00:39:50;98497.22;;;11.37;91.72
33422;BME280;19763;55.798;37.782;2022-09-24T00:42:18;98479.69;;;11.23;91.77
33422;BME280;19763;55.798;37.782;2022-09-24T00:49:52;98482.97;;;11.27;92.71
33422;BME280;19763;55.798;37.782;2022-09-24T00:52:23;98478.78;;;11.25;93.13
33422;BME280;19763;55.798;37.782;2022-09-24T00:54:49;98472.81;;;11.22;93.33
33422;BME280;19763;55.798;37.782;2022-09-24T00:57:14;98458.53;;;11.33;92.63
33422;BME280;19763;55.798;37.782;2022-09-24T00:59:42;98446.97;;;11.21;92.35
33422;BME280;19763;55.798;37.782;2022-09-24T01:02:08;98452.66;;;11.29;93.43
33422;BME280;19763;55.798;37.782;2022-09-24T01:04:34;98438.78;;;11.30;93.39
33422;BME280;19763;55.798;37.782;2022-09-24T01:06:59;98426.16;;;11.22;93.40
33422;BME280;19763;55.798;37.782;2022-09-24T01:09:26;98431.56;;;11.37;92.91
33422;BME280;19763;55.798;37.782;2022-09-24T01:12:18;98424.81;;;11.33;92.93
33422;BME280;19763;55.798;37.782;2022-09-24T01:15:09;98423.03;;;11.35;92.73
33422;BME280;19763;55.798;37.782;2022-09-24T01:20:49;98407.69;;;11.30;93.04
33422;BME280;19763;55.798;37.782;2022-09-24T01:26:16;98399.88;;;11.11;92.80
33422;BME280;19763;55.798;37.782;2022-09-24T01:31:35;98391.78;;;11.19;93.12
33422;BME280;19763;55.798;37.782;2022-09-24T01:34:05;98385.41;;;11.26;93.85
33422;BME280;19763;55.798;37.782;2022-09-24T01:36:34;98364.78;;;11.04;93.82
33422;BME280;19763;55.798;37.782;2022-09-24T01:39:03;98377.53;;;11.09;93.44
33422;BME280;19763;55.798;37.782;2022-09-24T01:41:31;98364.88;;;11.02;94.08
33422;BME280;19763;55.798;37.782;2022-09-24T01:43:58;98370.41;;;11.14;93.40
33422;BME280;19763;55.798;37.782;2022-09-24T01:46:25;98363.53;;;11.13;93.68
33422;BME280;19763;55.798;37.782;2022-09-24T01:48:51;98359.81;;;11.18;94.04
33422;BME280;19763;55.798;37.782;2022-09-24T01:51:22;98332.44;;;11.13;93.62
33422;BME280;19763;55.798;37.782;2022-09-24T01:54:01;98322.78;;;11.16;93.10
33422;BME280;19763;55.798;37.782;2022-09-24T01:56:49;98329.16;;;11.09;93.92
33422;BME280;19763;55.798;37.782;2022-09-24T02:02:47;98318.00;;;11.07;93.62
33422;BME280;19763;55.798;37.782;2022-09-24T02:04:54;98321.31;;;11.11;93.46
33422;BME280;19763;55.798;37.782;2022-09-24T02:07:23;98324.00;;;11.09;93.36
33422;BME280;19763;55.798;37.782;2022-09-24T02:09:49;98325.03;;;11.05;93.61
33422;BME280;19763;55.798;37.782;2022-09-24T02:12:19;98289.47;;;10.90;93.72
33422;BME280;19763;55.798;37.782;2022-09-24T02:14:54;98317.19;;;11.07;93.26
33422;BME280;19763;55.798;37.782;2022-09-24T02:17:23;98304.31;;;11.05;93.62
33422;BME280;19763;55.798;37.782;2022-09-24T02:19:51;98313.63;;;11.09;94.25
33422;BME280;19763;55.798;37.782;2022-09-24T02:22:19;98311.53;;;11.17;93.62
33422;BME280;19763;55.798;37.782;2022-09-24T02:24:54;98293.50;;;11.14;93.37
33422;BME280;19763;55.798;37.782;2022-09-24T02:27:24;98289.78;;;11.20;93.52
33422;BME280;19763;55.798;37.782;2022-09-24T02:29:57;98295.25;;;11.14;93.18
33422;BME280;19763;55.798;37.782;2022-09-24T02:32:26;98289.44;;;11.09;93.06
33422;BME280;19763;55.798;37.782;2022-09-24T02:34:57;98281.91;;;11.04;93.17
33422;BME280;19763;55.798;37.782;2022-09-24T02:37:33;98273.63;;;10.96;94.04
33422;BME280;19763;55.798;37.782;2022-09-24T02:40:00;98287.06;;;11.04;94.52
33422;BME280;19763;55.798;37.782;2022-09-24T02:42:28;98282.03;;;11.01;94.19
33422;BME280;19763;55.798;37.782;2022-09-24T02:44:56;98278.97;;;11.12;93.86
33422;BME280;19763;55.798;37.782;2022-09-24T02:47:24;98280.47;;;11.16;93.83
33422;BME280;19763;55.798;37.782;2022-09-24T02:49:50;98266.09;;;11.10;93.50
33422;BME280;19763;55.798;37.782;2022-09-24T02:52:16;98270.69;;;11.03;93.89
33422;BME280;19763;55.798;37.782;2022-09-24T02:54:43;98257.81;;;11.02;93.41
33422;BME280;19763;55.798;37.782;2022-09-24T02:57:09;98255.97;;;11.04;93.74
33422;BME280;19763;55.798;37.782;2022-09-24T02:59:35;98259.38;;;11.06;93.71
33422;BME280;19763;55.798;37.782;2022-09-24T03:02:01;98255.09;;;10.86;94.71
33422;BME280;19763;55.798;37.782;2022-09-24T03:04:27;98258.94;;;10.77;94.38
33422;BME280;19763;55.798;37.782;2022-09-24T03:06:53;98260.97;;;10.90;94.01
33422;BME280;19763;55.798;37.782;2022-09-24T03:09:19;98264.06;;;10.98;93.72
33422;BME280;19763;55.798;37.782;2022-09-24T03:11:45;98266.06;;;10.91;93.66
33422;BME280;19763;55.798;37.782;2022-09-24T03:14:11;98271.69;;;10.82;93.62
33422;BME280;19763;55.798;37.782;2022-09-24T03:16:37;98272.03;;;10.74;93.67
33422;BME280;19763;55.798;37.782;2022-09-24T03:19:03;98270.97;;;10.78;94.13
33422;BME280;19763;55.798;37.782;2022-09-24T03:21:29;98274.47;;;10.77;93.78
33422;BME280;19763;55.798;37.782;2022-09-24T03:23:54;98282.59;;;10.69;94.24
33422;BME280;19763;55.798;37.782;2022-09-24T03:26:20;98270.28;;;10.75;94.17
33422;BME280;19763;55.798;37.782;2022-09-24T03:28:46;98260.03;;;10.71;94.49
33422;BME280;19763;55.798;37.782;2022-09-24T03:31:12;98268.25;;;10.81;94.09
33422;BME280;19763;55.798;37.782;2022-09-24T03:33:43;98247.66;;;10.78;93.69
33422;BME280;19763;55.798;37.782;2022-09-24T03:36:11;98245.09;;;10.78;93.56
33422;BME280;19763;55.798;37.782;2022-09-24T03:38:38;98255.38;;;10.61;93.57
33422;BME280;19763;55.798;37.782;2022-09-24T03:41:06;98242.72;;;10.55;92.39
33422;BME280;19763;55.798;37.782;2022-09-24T03:43:31;98255.00;;;10.68;93.99
33422;BME280;19763;55.798;37.782;2022-09-24T03:45:58;98237.09;;;10.64;93.88
33422;BME280;19763;55.798;37.782;2022-09-24T03:48:24;98235.28;;;10.66;93.73
33422;BME280;19763;55.798;37.782;2022-09-24T03:50:51;98222.75;;;10.76;93.71
33422;BME280;19763;55.798;37.782;2022-09-24T03:53:17;98215.63;;;10.62;93.04
33422;BME280;19763;55.798;37.782;2022-09-24T03:55:51;98218.84;;;10.67;93.29
33422;BME280;19763;55.798;37.782;2022-09-24T03:58:18;98215.28;;;10.69;93.00
33422;BME280;19763;55.798;37.782;2022-09-24T04:00:44;98206.69;;;10.69;93.62
33422;BME280;19763;55.798;37.782;2022-09-24T04:03:10;98206.03;;;10.64;93.34
33422;BME280;19763;55.798;37.782;2022-09-24T04:05:35;98202.81;;;10.59;93.06
33422;BME280;19763;55.798;37.782;2022-09-24T04:08:01;98194.91;;;10.62;93.51
33422;BME280;19763;55.798;37.782;2022-09-24T04:10:28;98201.16;;;10.58;93.40
33422;BME280;19763;55.798;37.782;2022-09-24T04:12:54;98192.53;;;10.57;93.48
33422;BME280;19763;55.798;37.782;2022-09-24T04:15:20;98191.97;;;10.50;93.25
33422;BME280;19763;55.798;37.782;2022-09-24T04:17:54;98160.81;;;10.33;93.87
33422;BME280;19763;55.798;37.782;2022-09-24T04:20:21;98158.81;;;10.40;93.49
33422;BME280;19763;55.798;37.782;2022-09-24T04:22:54;98155.94;;;10.46;93.75
33422;BME280;19763;55.798;37.782;2022-09-24T04:25:21;98163.38;;;10.53;94.14
33422;BME280;19763;55.798;37.782;2022-09-24T04:27:56;98149.22;;;10.42;94.05
33422;BME280;19763;55.798;37.782;2022-09-24T04:30:23;98163.44;;;10.52;93.54
33422;BME280;19763;55.798;37.782;2022-09-24T04:32:50;98150.34;;;10.55;93.85
33422;BME280;19763;55.798;37.782;2022-09-24T04:35:18;98146.22;;;10.51;93.55
33422;BME280;19763;55.798;37.782;2022-09-24T04:37:44;98120.34;;;10.51;94.03
33422;BME280;19763;55.798;37.782;2022-09-24T04:40:10;98134.38;;;10.64;93.85
33422;BME280;19763;55.798;37.782;2022-09-24T04:42:37;98130.63;;;10.52;93.67
33422;BME280;19763;55.798;37.782;2022-09-24T04:45:08;98118.47;;;10.55;93.67
33422;BME280;19763;55.798;37.782;2022-09-24T04:47:34;98121.25;;;10.69;93.91
33422;BME280;19763;55.798;37.782;2022-09-24T04:50:00;98122.69;;;10.56;92.70
33422;BME280;19763;55.798;37.782;2022-09-24T04:52:30;98121.31;;;10.67;93.03
33422;BME280;19763;55.798;37.782;2022-09-24T04:54:58;98102.06;;;10.73;93.33
33422;BME280;19763;55.798;37.782;2022-09-24T04:57:25;98099.91;;;10.81;93.67
33422;BME280;19763;55.798;37.782;2022-09-24T04:59:51;98091.25;;;10.82;93.33
33422;BME280;19763;55.798;37.782;2022-09-24T05:02:18;98083.44;;;10.65;92.83
33422;BME280;19763;55.798;37.782;2022-09-24T05:04:44;98081.63;;;10.67;92.49
33422;BME280;19763;55.798;37.782;2022-09-24T05:07:10;98077.97;;;10.71;92.66
33422;BME280;19763;55.798;37.782;2022-09-24T05:09:36;98071.03;;;10.71;92.77
33422;BME280;19763;55.798;37.782;2022-09-24T05:12:03;98071.25;;;10.67;92.98
33422;BME280;19763;55.798;37.782;2022-09-24T05:14:28;98055.88;;;10.64;92.47
33422;BME280;19763;55.798;37.782;2022-09-24T05:16:54;98059.53;;;10.60;92.19
33422;BME280;19763;55.798;37.782;2022-09-24T05:19:20;98050.47;;;10.68;92.41
33422;BME280;19763;55.798;37.782;2022-09-24T05:21:46;98039.06;;;10.73;92.21
33422;BME280;19763;55.798;37.782;2022-09-24T05:24:12;98028.78;;;10.71;92.57
33422;BME280;19763;55.798;37.782;2022-09-24T05:26:38;98028.03;;;10.69;91.81
33422;BME280;19763;55.798;37.782;2022-09-24T05:29:22;98028.16;;;10.66;92.13
33422;BME280;19763;55.798;37.782;2022-09-24T05:31:48;98020.47;;;10.64;91.38
33422;BME280;19763;55.798;37.782;2022-09-24T05:34:14;98011.13;;;10.62;92.12
33422;BME280;19763;55.798;37.782;2022-09-24T05:36:41;98004.41;;;10.58;93.29
33422;BME280;19763;55.798;37.782;2022-09-24T05:39:10;98005.88;;;10.63;92.61
33422;BME280;19763;55.798;37.782;2022-09-24T05:41:37;97991.00;;;10.67;93.20
33422;BME280;19763;55.798;37.782;2022-09-24T05:44:03;97992.69;;;10.68;92.90
33422;BME280;19763;55.798;37.782;2022-09-24T05:46:28;97981.88;;;10.60;92.13
33422;BME280;19763;55.798;37.782;2022-09-24T05:48:54;97974.88;;;10.62;92.71
33422;BME280;19763;55.798;37.782;2022-09-24T05:51:20;97981.34;;;10.70;92.64
33422;BME280;19763;55.798;37.782;2022-09-24T05:53:46;97969.84;;;10.76;92.11
33422;BME280;19763;55.798;37.782;2022-09-24T05:56:11;97978.28;;;10.80;92.25
33422;BME280;19763;55.798;37.782;2022-09-24T05:58:37;97976.84;;;10.74;92.70
33422;BME280;19763;55.798;37.782;2022-09-24T06:01:03;97963.81;;;10.76;91.98
33422;BME280;19763;55.798;37.782;2022-09-24T06:03:28;97956.38;;;10.69;91.72
33422;BME280;19763;55.798;37.782;2022-09-24T06:05:54;97968.84;;;10.61;91.57
33422;BME280;19763;55.798;37.782;2022-09-24T06:08:21;97929.94;;;10.45;92.04
33422;BME280;19763;55.798;37.782;2022-09-24T06:10:47;97960.25;;;10.61;92.58
33422;BME280;19763;55.798;37.782;2022-09-24T06:13:16;97934.66;;;10.37;92.64
33422;BME280;19763;55.798;37.782;2022-09-24T06:15:42;97957.97;;;10.55;92.99
33422;BME280;19763;55.798;37.782;2022-09-24T06:18:09;97949.66;;;10.48;92.78
33422;BME280;19763;55.798;37.782;2022-09-24T06:20:35;97951.56;;;10.44;92.69
33422;BME280;19763;55.798;37.782;2022-09-24T06:23:01;97949.59;;;10.49;92.95
33422;BME280;19763;55.798;37.782;2022-09-24T06:25:27;97944.19;;;10.36;92.23
33422;BME280;19763;55.798;37.782;2022-09-24T06:27:57;97949.03;;;10.43;92.67
33422;BME280;19763;55.798;37.782;2022-09-24T06:30:37;97956.53;;;10.30;93.72
33422;BME280;19763;55.798;37.782;2022-09-24T06:33:05;97953.94;;;10.30;92.45
33422;BME280;19763;55.798;37.782;2022-09-24T06:35:34;97939.31;;;10.29;93.27
33422;BME280;19763;55.798;37.782;2022-09-24T06:38:01;97944.31;;;10.33;93.42
33422;BME280;19763;55.798;37.782;2022-09-24T06:40:26;97945.91;;;10.36;93.55
33422;BME280;19763;55.798;37.782;2022-09-24T06:42:52;97944.78;;;10.42;92.62
33422;BME280;19763;55.798;37.782;2022-09-24T06:45:19;97935.16;;;10.26;92.36
33422;BME280;19763;55.798;37.782;2022-09-24T06:47:52;97950.53;;;10.29;93.14
33422;BME280;19763;55.798;37.782;2022-09-24T06:50:19;97933.47;;;10.25;93.12
33422;BME280;19763;55.798;37.782;2022-09-24T06:52:44;97921.44;;;10.24;93.32
33422;BME280;19763;55.798;37.782;2022-09-24T06:55:10;97938.09;;;10.38;92.85
33422;BME280;19763;55.798;37.782;2022-09-24T06:57:36;97935.09;;;10.28;92.89
33422;BME280;19763;55.798;37.782;2022-09-24T07:00:02;97923.88;;;10.27;93.27
33422;BME280;19763;55.798;37.782;2022-09-24T07:02:29;97928.22;;;10.27;93.18
33422;BME280;19763;55.798;37.782;2022-09-24T07:04:55;97918.78;;;10.26;93.46
33422;BME280;19763;55.798;37.782;2022-09-24T07:07:21;97918.44;;;10.33;93.84
33422;BME280;19763;55.798;37.782;2022-09-24T07:10:05;97920.72;;;10.40;92.52
33422;BME280;19763;55.798;37.782;2022-09-24T07:12:32;97902.19;;;10.30;93.13
33422;BME280;19763;55.798;37.782;2022-09-24T07:14:58;97913.22;;;10.35;93.00
33422;BME280;19763;55.798;37.782;2022-09-24T07:17:25;97902.50;;;10.24;92.58
33422;BME280;19763;55.798;37.782;2022-09-24T07:19:52;97911.66;;;10.31;92.73
33422;BME280;19763;55.798;37.782;2022-09-24T07:22:18;97902.66;;;10.21;92.39
33422;BME280;19763;55.798;37.782;2022-09-24T07:24:44;97903.25;;;10.26;92.86
33422;BME280;19763;55.798;37.782;2022-09-24T07:27:10;97904.88;;;10.28;92.89
33422;BME280;19763;55.798;37.782;2022-09-24T07:29:36;97900.31;;;10.33;93.52
33422;BME280;19763;55.798;37.782;2022-09-24T07:32:03;97881.81;;;10.24;93.08
33422;BME280;19763;55.798;37.782;2022-09-24T07:34:29;97887.16;;;10.21;93.61
33422;BME280;19763;55.798;37.782;2022-09-24T07:36:55;97885.22;;;10.07;93.05
33422;BME280;19763;55.798;37.782;2022-09-24T07:39:22;97877.78;;;10.18;93.90
33422;BME280;19763;55.798;37.782;2022-09-24T07:41:48;97878.84;;;10.14;93.05
33422;BME280;19763;55.798;37.782;2022-09-24T07:44:17;97883.94;;;10.15;94.13
33422;BME280;19763;55.798;37.782;2022-09-24T07:46:49;97882.41;;;10.11;93.89
33422;BME280;19763;55.798;37.782;2022-09-24T07:49:15;97873.34;;;10.20;93.92
33422;BME280;19763;55.798;37.782;2022-09-24T07:51:40;97873.66;;;10.31;93.86
33422;BME280;19763;55.798;37.782;2022-09-24T07:54:06;97873.16;;;10.25;93.55
33422;BME280;19763;55.798;37.782;2022-09-24T07:56:32;97864.16;;;10.32;93.69
33422;BME280;19763;55.798;37.782;2022-09-24T07:58:58;97868.41;;;10.33;93.77
33422;BME280;19763;55.798;37.782;2022-09-24T08:01:24;97871.66;;;10.38;93.55
33422;BME280;19763;55.798;37.782;2022-09-24T08:03:50;97865.56;;;10.39;94.18
33422;BME280;19763;55.798;37.782;2022-09-24T08:06:17;97864.78;;;10.37;94.21
33422;BME280;19763;55.798;37.782;2022-09-24T08:08:42;97865.56;;;10.39;93.99
33422;BME280;19763;55.798;37.782;2022-09-24T08:11:10;97854.66;;;10.32;94.92
33422;BME280;19763;55.798;37.782;2022-09-24T08:13:41;97861.66;;;10.30;94.01
33422;BME280;19763;55.798;37.782;2022-09-24T08:16:07;97856.31;;;10.33;93.87
33422;BME280;19763;55.798;37.782;2022-09-24T08:18:33;97854.59;;;10.34;93.69
33422;BME280;19763;55.798;37.782;2022-09-24T08:21:03;97858.47;;;10.43;94.40
33422;BME280;19763;55.798;37.782;2022-09-24T08:23:31;97844.94;;;10.38;94.01
33422;BME280;19763;55.798;37.782;2022-09-24T08:25:57;97846.69;;;10.37;94.32
33422;BME280;19763;55.798;37.782;2022-09-24T08:28:22;97829.69;;;10.31;93.53
33422;BME280;19763;55.798;37.782;2022-09-24T08:30:48;97841.72;;;10.32;93.91
33422;BME280;19763;55.798;37.782;2022-09-24T08:33:14;97837.94;;;10.40;93.07
33422;BME280;19763;55.798;37.782;2022-09-24T08:35:40;97841.13;;;10.45;94.06
33422;BME280;19763;55.798;37.782;2022-09-24T08:38:06;97830.31;;;10.36;92.14
33422;BME280;19763;55.798;37.782;2022-09-24T08:40:42;97835.78;;;10.48;93.54
33422;BME280;19763;55.798;37.782;2022-09-24T08:43:18;97838.66;;;10.59;93.19
33422;BME280;19763;55.798;37.782;2022-09-24T08:45:54;97830.53;;;10.49;93.54
33422;BME280;19763;55.798;37.782;2022-09-24T08:48:44;97821.94;;;10.49;93.22
33422;BME280;19763;55.798;37.782;2022-09-24T08:51:15;97825.53;;;10.46;92.96
33422;BME280;19763;55.798;37.782;2022-09-24T08:54:11;97833.56;;;10.58;93.02
33422;BME280;19763;55.798;37.782;2022-09-24T08:56:41;97815.63;;;10.55;93.08
33422;BME280;19763;55.798;37.782;2022-09-24T08:59:27;97822.56;;;10.70;93.22
33422;BME280;19763;55.798;37.782;2022-09-24T09:08:06;97811.03;;;10.60;94.12
33422;BME280;19763;55.798;37.782;2022-09-24T09:10:37;97804.03;;;10.62;93.74
33422;BME280;19763;55.798;37.782;2022-09-24T09:13:26;97820.22;;;10.65;93.33
33422;BME280;19763;55.798;37.782;2022-09-24T09:16:03;97800.38;;;10.48;92.94
33422;BME280;19763;55.798;37.782;2022-09-24T09:18:41;97803.16;;;10.61;93.48
33422;BME280;19763;55.798;37.782;2022-09-24T09:21:24;97811.22;;;10.73;93.44
33422;BME280;19763;55.798;37.782;2022-09-24T09:23:53;97801.94;;;10.68;92.93
33422;BME280;19763;55.798;37.782;2022-09-24T09:26:20;97815.50;;;10.74;93.75
33422;BME280;19763;55.798;37.782;2022-09-24T09:28:47;97786.13;;;10.57;93.21
33422;BME280;19763;55.798;37.782;2022-09-24T09:34:22;97801.03;;;10.69;92.56
33422;BME280;19763;55.798;37.782;2022-09-24T09:39:56;97793.72;;;10.60;92.31
33422;BME280;19763;55.798;37.782;2022-09-24T09:42:30;97795.75;;;10.71;92.83
33422;BME280;19763;55.798;37.782;2022-09-24T09:47:48;97794.84;;;10.72;92.94
33422;BME280;19763;55.798;37.782;2022-09-24T09:50:28;97784.22;;;10.61;92.57
33422;BME280;19763;55.798;37.782;2022-09-24T09:52:55;97789.50;;;10.75;93.25
33422;BME280;19763;55.798;37.782;2022-09-24T09:55:31;97764.78;;;10.69;92.61
33422;BME280;19763;55.798;37.782;2022-09-24T10:00:39;97769.97;;;10.85;92.54
33422;BME280;19763;55.798;37.782;2022-09-24T10:03:04;97782.19;;;10.83;92.00
33422;BME280;19763;55.798;37.782;2022-09-24T10:05:30;97778.88;;;10.64;91.32
33422;BME280;19763;55.798;37.782;2022-09-24T10:07:56;97777.81;;;10.68;92.52
33422;BME280;19763;55.798;37.782;2022-09-24T10:10:25;97768.53;;;10.64;92.56
33422;BME280;19763;55.798;37.782;2022-09-24T10:12:53;97773.09;;;10.59;92.91
33422;BME280;19763;55.798;37.782;2022-09-24T10:15:21;97765.69;;;10.68;93.31
33422;BME280;19763;55.798;37.782;2022-09-24T10:17:51;97778.41;;;10.73;93.20
33422;BME280;19763;55.798;37.782;2022-09-24T10:20:30;97763.19;;;10.67;93.33
33422;BME280;19763;55.798;37.782;2022-09-24T10:23:21;97772.81;;;10.81;93.18
33422;BME280;19763;55.798;37.782;2022-09-24T10:25:52;97772.72;;;10.82;92.75
33422;BME280;19763;55.798;37.782;2022-09-24T10:28:20;97768.28;;;10.68;92.53
33422;BME280;19763;55.798;37.782;2022-09-24T10:31:09;97775.06;;;10.71;92.57
33422;BME280;19763;55.798;37.782;2022-09-24T10:33:44;97758.78;;;10.69;93.43
33422;BME280;19763;55.798;37.782;2022-09-24T10:36:21;97772.47;;;10.87;93.02
33422;BME280;19763;55.798;37.782;2022-09-24T10:38:47;97766.47;;;10.86;93.17
33422;BME280;19763;55.798;37.782;2022-09-24T10:41:27;97768.81;;;10.91;92.86
33422;BME280;19763;55.798;37.782;2022-09-24T10:43:56;97758.44;;;10.91;92.82
33422;BME280;19763;55.798;37.782;2022-09-24T10:52:24;97762.78;;;11.07;92.24
33422;BME280;19763;55.798;37.782;2022-09-24T10:58:45;97760.94;;;10.93;92.85
33422;BME280;19763;55.798;37.782;2022-09-24T11:01:06;97757.72;;;10.89;91.69
33422;BME280;19763;55.798;37.782;2022-09-24T11:07:13;97763.22;;;10.99;92.07
33422;BME280;19763;55.798;37.782;2022-09-24T11:09:54;97753.78;;;10.98;92.50
33422;BME280;19763;55.798;37.782;2022-09-24T11:15:00;97752.44;;;10.91;92.49
33422;BME280;19763;55.798;37.782;2022-09-24T11:17:46;97762.03;;;10.88;92.59
33422;BME280;19763;55.798;37.782;2022-09-24T11:26:06;97728.97;;;10.94;92.00
33422;BME280;19763;55.798;37.782;2022-09-24T11:45:23;97731.03;;;11.03;91.33
33422;BME280;19763;55.798;37.782;2022-09-24T11:53:38;97732.88;;;11.01;91.75
33422;BME280;19763;55.798;37.782;2022-09-24T12:01:32;97720.19;;;10.96;91.15
33422;BME280;19763;55.798;37.782;2022-09-24T12:04:07;97712.25;;;10.99;91.65
33422;BME280;19763;55.798;37.782;2022-09-24T12:06:56;97711.44;;;10.99;91.33
33422;BME280;19763;55.798;37.782;2022-09-24T12:09:38;97703.31;;;11.05;91.39
33422;BME280;19763;55.798;37.782;2022-09-24T12:12:11;97700.03;;;11.01;91.38
33422;BME280;19763;55.798;37.782;2022-09-24T12:15:01;97705.97;;;11.03;91.42
33422;BME280;19763;55.798;37.782;2022-09-24T12:18:05;97704.03;;;11.07;91.07
33422;BME280;19763;55.798;37.782;2022-09-24T12:20:48;97709.50;;;11.02;91.68
33422;BME280;19763;55.798;37.782;2022-09-24T12:23:17;97704.38;;;11.01;91.43
33422;BME280;19763;55.798;37.782;2022-09-24T12:25:46;97694.38;;;10.95;91.04
33422;BME280;19763;55.798;37.782;2022-09-24T12:28:14;97718.94;;;11.03;90.92
33422;BME280;19763;55.798;37.782;2022-09-24T12:31:01;97703.72;;;10.97;91.49
33422;BME280;19763;55.798;37.782;2022-09-24T12:37:06;97691.53;;;10.83;91.37
33422;BME280;19763;55.798;37.782;2022-09-24T12:39:41;97686.47;;;10.82;91.28
33422;BME280;19763;55.798;37.782;2022-09-24T12:42:10;97693.97;;;10.86;91.12
33422;BME280;19763;55.798;37.782;2022-09-24T12:44:57;97699.22;;;10.85;90.76
33422;BME280;19763;55.798;37.782;2022-09-24T12:47:27;97683.19;;;10.78;91.44
33422;BME280;19763;55.798;37.782;2022-09-24T12:49:59;97685.78;;;10.78;91.38
33422;BME280;19763;55.798;37.782;2022-09-24T12:52:35;97695.66;;;10.87;91.92
33422;BME280;19763;55.798;37.782;2022-09-24T12:55:04;97697.28;;;10.88;91.23
33422;BME280;19763;55.798;37.782;2022-09-24T12:57:39;97697.38;;;10.87;91.48
33422;BME280;19763;55.798;37.782;2022-09-24T13:03:01;97694.13;;;10.83;90.78
33422;BME280;19763;55.798;37.782;2022-09-24T13:10:38;97696.63;;;10.85;91.56
33422;BME280;19763;55.798;37.782;2022-09-24T13:13:25;97704.81;;;10.77;91.07
33422;BME280;19763;55.798;37.782;2022-09-24T13:16:18;97697.22;;;10.74;90.56
33422;BME280;19763;55.798;37.782;2022-09-24T13:18:55;97708.16;;;10.79;91.09
33422;BME280;19763;55.798;37.782;2022-09-24T13:21:27;97691.38;;;10.70;91.87
33422;BME280;19763;55.798;37.782;2022-09-24T13:23:54;97705.16;;;10.71;92.04
33422;BME280;19763;55.798;37.782;2022-09-24T13:26:25;97704.31;;;10.70;91.56
33422;BME280;19763;55.798;37.782;2022-09-24T13:28:57;97697.38;;;10.71;91.16
33422;BME280;19763;55.798;37.782;2022-09-24T13:31:32;97704.97;;;10.58;91.03
33422;BME280;19763;55.798;37.782;2022-09-24T13:34:12;97694.72;;;10.57;91.94
33422;BME280;19763;55.798;37.782;2022-09-24T13:36:54;97693.97;;;10.55;91.62
33422;BME280;19763;55.798;37.782;2022-09-24T13:42:19;97705.31;;;10.68;91.72
33422;BME280;19763;55.798;37.782;2022-09-24T13:44:55;97704.50;;;10.67;92.03
33422;BME280;19763;55.798;37.782;2022-09-24T13:50:07;97699.16;;;10.70;91.98
33422;BME280;19763;55.798;37.782;2022-09-24T13:52:43;97684.78;;;10.65;91.67
33422;BME280;19763;55.798;37.782;2022-09-24T13:55:20;97690.78;;;10.65;91.55
33422;BME280;19763;55.798;37.782;2022-09-24T13:57:47;97687.47;;;10.63;91.40
33422;BME280;19763;55.798;37.782;2022-09-24T14:00:19;97691.94;;;10.60;91.65
33422;BME280;19763;55.798;37.782;2022-09-24T14:03:16;97696.47;;;10.72;92.28
33422;BME280;19763;55.798;37.782;2022-09-24T14:05:45;97680.94;;;10.72;91.68
33422;BME280;19763;55.798;37.782;2022-09-24T14:08:14;97683.94;;;10.64;91.87
33422;BME280;19763;55.798;37.782;2022-09-24T14:10:42;97684.09;;;10.61;91.41
33422;BME280;19763;55.798;37.782;2022-09-24T14:13:21;97676.41;;;10.60;91.68
33422;BME280;19763;55.798;37.782;2022-09-24T14:15:57;97684.78;;;10.65;91.85
33422;BME280;19763;55.798;37.782;2022-09-24T14:18:25;97690.53;;;10.70;91.55
33422;BME280;19763;55.798;37.782;2022-09-24T14:23:24;97691.59;;;10.66;91.63
33422;BME280;19763;55.798;37.782;2022-09-24T14:25:53;97689.88;;;10.66;91.70
33422;BME280;19763;55.798;37.782;2022-09-24T14:28:20;97679.91;;;10.59;91.59
33422;BME280;19763;55.798;37.782;2022-09-24T14:30:52;97664.91;;;10.49;91.60
33422;BME280;19763;55.798;37.782;2022-09-24T14:33:22;97673.31;;;10.53;91.93
33422;BME280;19763;55.798;37.782;2022-09-24T14:35:52;97678.44;;;10.55;92.11
33422;BME280;19763;55.798;37.782;2022-09-24T14:38:25;97682.50;;;10.59;92.08
33422;BME280;19763;55.798;37.782;2022-09-24T14:40:59;97691.78;;;10.63;91.96
33422;BME280;19763;55.798;37.782;2022-09-24T14:43:37;97687.69;;;10.59;91.95
33422;BME280;19763;55.798;37.782;2022-09-24T14:46:33;97687.69;;;10.59;91.81
33422;BME280;19763;55.798;37.782;2022-09-24T14:51:30;97689.19;;;10.63;91.89